Time;durP1;ratioP1;P1;durP2;ratioP2;P2;SDS_P1;SDS_P2;PMS_P1;PMS_P2;Temp;Humidity;BMP_temperature;BMP_pressure;BME280_temperature;BME280_humidity;BME280_pressure;Samples;Min_cycle;Max_cycle;Signal;HPM_P1;HPM_P2
2022/09/10 00:01:53;;;;;;;7.97;2.58;;;16.70;87.30;;;;;;5076443;28;20017;-30
2022/09/10 00:04:19;;;;;;;5.97;2.25;;;16.70;87.30;;;;;;5076813;28;20074;-30
2022/09/10 00:06:45;;;;;;;3.63;2.10;;;16.70;87.30;;;;;;5076417;28;20432;-29
2022/09/10 00:09:11;;;;;;;5.32;2.15;;;16.70;87.30;;;;;;5076177;28;20081;-29
2022/09/10 00:11:39;;;;;;;4.68;2.10;;;16.80;87.20;;;;;;5076087;28;20020;-33
2022/09/10 00:14:07;;;;;;;4.15;2.15;;;16.80;87.20;;;;;;5076600;28;20020;-31
2022/09/10 00:16:32;;;;;;;6.75;2.67;;;16.70;87.10;;;;;;5076444;28;20103;-28
2022/09/10 00:19:00;;;;;;;4.95;2.22;;;16.70;87.10;;;;;;5076014;28;20064;-30
2022/09/10 00:21:26;;;;;;;4.38;2.40;;;16.70;87.10;;;;;;5076195;28;20025;-28
2022/09/10 00:23:52;;;;;;;3.70;2.58;;;16.70;87.10;;;;;;5076196;28;20029;-29
2022/09/10 00:26:21;;;;;;;6.30;2.65;;;16.70;87.20;;;;;;5076543;28;20016;-28
2022/09/10 00:28:48;;;;;;;5.85;2.72;;;16.70;87.20;;;;;;5076066;28;20031;-31
2022/09/10 00:31:14;;;;;;;3.72;2.63;;;16.70;87.20;;;;;;5076034;28;20029;-39
2022/09/10 00:33:40;;;;;;;8.43;2.60;;;16.70;87.20;;;;;;5075994;28;20023;-31
2022/09/10 00:36:14;;;;;;;6.40;3.47;;;16.70;87.20;;;;;;5075886;28;20025;-30
2022/09/10 00:38:40;;;;;;;4.18;2.92;;;16.70;87.20;;;;;;5074365;28;20507;-29
2022/09/10 00:41:07;;;;;;;5.45;3.30;;;16.70;87.10;;;;;;5075999;28;20021;-30
2022/09/10 00:43:57;;;;;;;4.03;2.90;;;16.80;87.10;;;;;;5075921;28;20444;-30
2022/09/10 00:46:49;;;;;;;5.18;3.13;;;16.70;87.10;;;;;;5075678;28;20023;-31
2022/09/10 00:49:47;;;;;;;5.57;3.33;;;16.70;87.10;;;;;;5075276;28;20460;-30
2022/09/10 00:52:13;;;;;;;7.75;3.78;;;16.70;87.00;;;;;;5075709;28;20020;-31
2022/09/10 00:54:41;;;;;;;7.53;4.22;;;16.70;87.00;;;;;;5076358;28;20158;-32
2022/09/10 00:57:11;;;;;;;8.02;4.30;;;16.70;87.00;;;;;;5075488;28;20028;-34
2022/09/10 00:59:40;;;;;;;5.80;3.88;;;16.70;87.00;;;;;;5075420;28;20020;-31
2022/09/10 01:02:06;;;;;;;7.22;4.03;;;16.70;87.00;;;;;;5075192;28;20078;-31
2022/09/10 01:04:32;;;;;;;8.45;4.28;;;16.70;87.10;;;;;;5074735;28;20381;-30
2022/09/10 01:06:59;;;;;;;6.15;4.60;;;16.70;87.10;;;;;;5074772;28;20036;-30
2022/09/10 01:09:26;;;;;;;5.72;4.20;;;16.70;87.10;;;;;;5074787;28;20418;-28
2022/09/10 01:12:07;;;;;;;5.20;4.60;;;16.70;87.10;;;;;;5074679;28;20021;-27
2022/09/10 01:15:06;;;;;;;7.30;4.78;;;16.70;87.10;;;;;;5074653;28;20103;-31
2022/09/10 01:18:17;;;;;;;7.35;5.15;;;16.70;87.10;;;;;;5073114;28;20086;-28
2022/09/10 01:20:49;;;;;;;8.57;5.50;;;16.80;87.10;;;;;;5073662;28;20039;-31
2022/09/10 01:23:46;;;;;;;9.27;5.77;;;16.80;87.00;;;;;;5074612;28;20479;-29
2022/09/10 01:26:35;;;;;;;9.13;5.85;;;16.80;86.90;;;;;;5074325;28;20380;-28
2022/09/10 01:29:08;;;;;;;7.28;5.65;;;16.80;87.00;;;;;;5074438;28;20021;-29
2022/09/10 01:31:50;;;;;;;7.70;6.32;;;16.70;86.90;;;;;;5074483;28;20081;-30
2022/09/10 01:34:25;;;;;;;8.48;5.85;;;16.80;87.00;;;;;;5074173;28;20032;-29
2022/09/10 01:36:54;;;;;;;11.15;6.78;;;16.70;87.00;;;;;;5074120;28;20021;-29
2022/09/10 01:39:22;;;;;;;8.18;6.22;;;16.70;87.00;;;;;;5074545;28;20017;-28
2022/09/10 01:41:50;;;;;;;8.80;6.00;;;16.70;87.10;;;;;;5074185;28;20093;-30
2022/09/10 01:44:42;;;;;;;8.43;6.03;;;16.70;87.10;;;;;;5073909;28;20039;-29
2022/09/10 01:47:17;;;;;;;8.23;6.63;;;16.70;87.10;;;;;;5072214;28;20029;-28
2022/09/10 01:53:27;;;;;;;9.15;6.80;;;16.80;87.10;;;;;;5073884;28;20027;-29
2022/09/10 01:56:34;;;;;;;11.57;7.35;;;16.80;87.10;;;;;;5073763;28;20016;-29
2022/09/10 01:59:08;;;;;;;7.68;6.68;;;16.80;87.10;;;;;;5073530;28;20386;-28
2022/09/10 02:02:19;;;;;;;8.52;6.57;;;16.80;87.10;;;;;;5073690;28;20099;-30
2022/09/10 02:04:49;;;;;;;6.53;5.72;;;16.80;87.00;;;;;;5072937;28;20040;-30
2022/09/10 02:07:17;;;;;;;9.32;6.60;;;16.80;86.90;;;;;;5073240;28;20389;-32
2022/09/10 02:09:43;;;;;;;12.55;6.57;;;16.80;86.90;;;;;;5073563;28;20065;-30
2022/09/10 02:12:16;;;;;;;9.18;7.00;;;16.80;87.00;;;;;;5073234;28;20099;-30
2022/09/10 02:14:42;;;;;;;9.73;6.90;;;16.80;87.10;;;;;;5073158;28;20109;-31
2022/09/10 02:17:07;;;;;;;10.02;7.60;;;16.80;87.10;;;;;;5073464;28;20075;-29
2022/09/10 02:19:33;;;;;;;13.75;7.60;;;16.80;87.20;;;;;;5073559;28;20035;-27
2022/09/10 02:21:59;;;;;;;10.45;7.13;;;16.80;87.20;;;;;;5073166;28;20048;-29
2022/09/10 02:24:26;;;;;;;8.00;6.15;;;16.80;87.30;;;;;;5073337;28;20028;-29
2022/09/10 02:26:51;;;;;;;10.68;7.28;;;16.90;87.30;;;;;;5072947;28;20028;-29
2022/09/10 02:29:18;;;;;;;9.10;7.57;;;16.80;87.30;;;;;;5073288;28;20107;-29
2022/09/10 02:31:44;;;;;;;10.50;7.45;;;16.80;87.30;;;;;;5072933;28;20017;-29
2022/09/10 02:34:10;;;;;;;11.13;7.53;;;16.80;87.30;;;;;;5073134;28;20033;-30
2022/09/10 02:36:36;;;;;;;10.27;7.18;;;16.90;87.40;;;;;;5073798;28;20439;-29
2022/09/10 02:39:04;;;;;;;10.52;7.25;;;16.90;87.40;;;;;;5073389;28;20036;-29
2022/09/10 02:41:33;;;;;;;9.07;6.75;;;16.90;87.30;;;;;;5073005;28;20092;-29
2022/09/10 02:44:03;;;;;;;8.38;6.55;;;16.90;87.40;;;;;;5072791;28;20086;-30
2022/09/10 02:46:29;;;;;;;11.95;7.28;;;16.90;87.40;;;;;;5073088;28;20047;-32
2022/09/10 02:48:54;;;;;;;9.77;7.15;;;16.90;87.40;;;;;;5073137;28;20017;-29
2022/09/10 02:51:21;;;;;;;8.75;7.20;;;16.90;87.30;;;;;;5071378;28;20032;-30
2022/09/10 02:53:48;;;;;;;9.93;6.90;;;16.90;87.40;;;;;;5072783;28;20085;-30
2022/09/10 02:56:14;;;;;;;10.70;8.02;;;16.90;87.40;;;;;;5072813;28;20072;-32
2022/09/10 02:58:40;;;;;;;8.43;6.85;;;16.90;87.40;;;;;;5072555;28;20107;-30
2022/09/10 03:01:17;;;;;;;10.40;6.90;;;16.90;87.40;;;;;;5073274;28;20099;-31
2022/09/10 03:03:53;;;;;;;9.75;6.57;;;16.90;87.50;;;;;;5073369;28;20119;-30
2022/09/10 03:06:20;;;;;;;7.95;6.03;;;16.90;87.40;;;;;;5072697;28;20012;-28
2022/09/10 03:08:47;;;;;;;9.77;6.90;;;16.90;87.40;;;;;;5070648;28;20439;-29
2022/09/10 03:11:14;;;;;;;12.52;7.60;;;16.90;87.40;;;;;;5072451;28;20012;-29
2022/09/10 03:13:39;;;;;;;9.93;6.55;;;16.90;87.40;;;;;;5072783;28;20423;-29
2022/09/10 03:16:06;;;;;;;9.27;6.55;;;16.90;87.40;;;;;;5072682;28;20025;-28
2022/09/10 03:18:31;;;;;;;7.53;6.47;;;16.90;87.40;;;;;;5072681;28;20423;-28
2022/09/10 03:21:14;;;;;;;8.02;6.55;;;16.90;87.40;;;;;;5072836;28;20016;-29
2022/09/10 03:23:41;;;;;;;7.10;6.35;;;16.90;87.40;;;;;;5072373;28;20016;-29
2022/09/10 03:26:09;;;;;;;7.88;6.90;;;16.90;87.40;;;;;;5072260;28;20488;-28
2022/09/10 03:28:36;;;;;;;9.85;7.38;;;16.90;87.50;;;;;;5072557;28;20400;-29
2022/09/10 03:31:03;;;;;;;9.52;7.55;;;16.90;87.50;;;;;;5072271;28;20016;-29
2022/09/10 03:33:28;;;;;;;8.48;7.43;;;16.90;87.50;;;;;;5072301;28;20033;-29
2022/09/10 03:35:54;;;;;;;7.63;6.93;;;16.90;87.60;;;;;;5072781;28;20117;-29
2022/09/10 03:38:20;;;;;;;9.32;7.53;;;16.90;87.60;;;;;;5072195;28;20029;-30
2022/09/10 03:40:45;;;;;;;6.97;6.25;;;16.90;87.60;;;;;;5072149;28;20033;-30
2022/09/10 03:43:14;;;;;;;8.70;7.45;;;16.90;87.60;;;;;;5072368;28;20017;-33
2022/09/10 03:45:40;;;;;;;8.27;7.47;;;16.90;87.50;;;;;;5072181;28;20384;-30
2022/09/10 03:48:05;;;;;;;7.78;6.45;;;16.90;87.60;;;;;;5072545;28;20016;-34
2022/09/10 03:50:31;;;;;;;8.57;6.75;;;16.90;87.60;;;;;;5071967;28;20051;-30
2022/09/10 03:52:56;;;;;;;9.30;7.45;;;16.90;87.70;;;;;;5070693;28;20391;-29
2022/09/10 03:55:23;;;;;;;9.13;6.60;;;16.90;87.60;;;;;;5072010;28;20017;-29
2022/09/10 03:57:48;;;;;;;9.07;6.65;;;16.90;87.70;;;;;;5071076;28;20178;-30
2022/09/10 04:00:14;;;;;;;9.30;6.90;;;16.90;87.70;;;;;;5072456;28;20104;-30
2022/09/10 04:02:40;;;;;;;8.07;6.63;;;16.90;87.70;;;;;;5072356;28;20049;-31
2022/09/10 04:05:07;;;;;;;8.45;7.00;;;16.90;87.70;;;;;;5071995;28;20060;-29
2022/09/10 04:07:33;;;;;;;7.35;6.57;;;16.90;87.70;;;;;;5071829;28;20032;-30
2022/09/10 04:09:59;;;;;;;8.90;6.80;;;16.90;87.70;;;;;;5072427;28;20035;-32
2022/09/10 04:12:25;;;;;;;9.75;6.78;;;16.90;87.70;;;;;;5072057;28;20086;-32
2022/09/10 04:14:51;;;;;;;7.50;6.65;;;16.90;87.70;;;;;;5072286;28;20095;-32
2022/09/10 04:17:17;;;;;;;7.47;5.85;;;16.90;87.80;;;;;;5071881;28;20143;-29
2022/09/10 04:19:43;;;;;;;10.90;6.57;;;16.90;87.70;;;;;;5074737;28;20017;-29
2022/09/10 04:22:08;;;;;;;7.40;6.70;;;16.90;87.70;;;;;;5075644;28;20031;-29
2022/09/10 04:24:34;;;;;;;7.38;6.05;;;16.90;87.80;;;;;;5075722;28;20025;-30
2022/09/10 04:27:00;;;;;;;8.13;6.70;;;16.90;87.80;;;;;;5075672;28;20029;-29
2022/09/10 04:29:26;;;;;;;8.52;6.45;;;16.90;87.80;;;;;;5075519;28;20399;-29
2022/09/10 04:31:54;;;;;;;9.23;6.25;;;16.90;87.80;;;;;;5075116;28;20044;-30
2022/09/10 04:34:21;;;;;;;8.45;6.30;;;16.90;87.70;;;;;;5074923;28;20107;-28
2022/09/10 04:36:47;;;;;;;6.85;5.78;;;16.90;87.70;;;;;;5075010;28;20021;-27
2022/09/10 04:39:13;;;;;;;6.95;5.93;;;16.90;87.70;;;;;;5075215;28;20146;-27
2022/09/10 04:41:39;;;;;;;9.02;7.45;;;16.90;87.70;;;;;;5075235;28;20495;-27
2022/09/10 04:44:05;;;;;;;6.63;5.65;;;16.90;87.80;;;;;;5075199;28;20033;-27
2022/09/10 04:46:30;;;;;;;8.77;6.15;;;16.90;87.80;;;;;;5074616;28;20028;-29
2022/09/10 04:48:57;;;;;;;7.97;5.68;;;16.90;87.80;;;;;;5075164;28;20097;-30
2022/09/10 04:51:22;;;;;;;6.45;5.80;;;17.00;87.80;;;;;;5075052;28;20483;-27
2022/09/10 04:53:48;;;;;;;7.88;6.20;;;17.00;87.80;;;;;;5074791;28;20025;-29
2022/09/10 04:56:14;;;;;;;8.63;6.43;;;16.90;87.70;;;;;;5074679;28;20063;-28
2022/09/10 04:58:40;;;;;;;7.07;5.72;;;17.00;87.80;;;;;;5074903;28;20107;-28
2022/09/10 05:01:06;;;;;;;6.65;5.97;;;17.00;87.90;;;;;;5075002;28;20111;-28
2022/09/10 05:03:31;;;;;;;6.53;5.50;;;17.00;87.90;;;;;;5074485;28;20020;-33
2022/09/10 05:05:57;;;;;;;9.98;6.78;;;17.00;87.90;;;;;;5075263;28;20016;-30
2022/09/10 05:08:22;;;;;;;5.35;4.82;;;17.00;87.90;;;;;;5074588;28;20032;-30
2022/09/10 05:10:48;;;;;;;5.55;4.90;;;17.00;87.90;;;;;;5074421;28;20469;-27
2022/09/10 05:13:14;;;;;;;6.75;5.20;;;17.00;87.80;;;;;;5074576;28;20021;-28
2022/09/10 05:15:40;;;;;;;8.00;5.47;;;17.00;87.70;;;;;;5074563;28;20025;-28
2022/09/10 05:18:06;;;;;;;7.10;5.30;;;17.00;87.60;;;;;;5074502;28;20286;-28
2022/09/10 05:20:33;;;;;;;5.78;5.20;;;17.00;87.60;;;;;;5072859;28;20025;-28
2022/09/10 05:22:58;;;;;;;7.50;5.47;;;17.00;87.70;;;;;;5074405;28;20035;-28
2022/09/10 05:25:26;;;;;;;6.57;4.97;;;17.00;87.80;;;;;;5074092;28;20457;-27
2022/09/10 05:27:52;;;;;;;6.85;5.82;;;17.00;87.80;;;;;;5074746;28;20452;-29
2022/09/10 05:30:17;;;;;;;6.13;5.32;;;17.00;87.80;;;;;;5073089;28;20013;-27
2022/09/10 05:32:44;;;;;;;6.80;5.53;;;17.00;87.80;;;;;;5074034;28;20028;-28
2022/09/10 05:35:09;;;;;;;8.23;5.80;;;17.00;87.80;;;;;;5073715;28;20027;-27
2022/09/10 05:37:35;;;;;;;7.10;5.50;;;17.10;87.90;;;;;;5072680;28;20115;-27
2022/09/10 05:40:04;;;;;;;5.43;4.82;;;17.10;87.90;;;;;;5074263;28;20443;-27
2022/09/10 05:42:30;;;;;;;6.43;5.15;;;17.10;87.90;;;;;;5074034;28;20028;-33
2022/09/10 05:44:56;;;;;;;5.72;5.18;;;17.10;87.90;;;;;;5074240;28;20032;-29
2022/09/10 05:47:21;;;;;;;7.03;5.40;;;17.10;87.90;;;;;;5073753;28;20021;-26
2022/09/10 05:49:48;;;;;;;5.70;5.10;;;17.00;87.70;;;;;;5073839;28;20039;-28
2022/09/10 05:52:14;;;;;;;5.20;4.65;;;17.10;87.90;;;;;;5074099;28;20017;-28
2022/09/10 05:54:40;;;;;;;6.55;5.22;;;17.10;87.90;;;;;;5073932;28;20027;-28
2022/09/10 05:57:06;;;;;;;6.28;5.68;;;17.10;87.90;;;;;;5073823;28;20020;-29
2022/09/10 05:59:33;;;;;;;7.00;5.35;;;17.20;87.90;;;;;;5074186;28;20373;-31
2022/09/10 06:01:59;;;;;;;5.43;4.90;;;17.20;87.80;;;;;;5074264;28;20021;-29
2022/09/10 06:04:25;;;;;;;6.07;5.30;;;17.20;87.90;;;;;;5074249;28;20103;-29
2022/09/10 06:06:52;;;;;;;8.35;5.70;;;17.20;87.80;;;;;;5073892;28;20496;-30
2022/09/10 06:09:18;;;;;;;5.63;5.00;;;17.30;87.90;;;;;;5073800;28;20380;-29
2022/09/10 06:11:46;;;;;;;7.25;5.70;;;17.20;87.80;;;;;;5073902;28;20024;-28
2022/09/10 06:14:13;;;;;;;6.90;5.80;;;17.20;88.00;;;;;;5073379;28;20494;-28
2022/09/10 06:16:39;;;;;;;7.95;5.72;;;17.20;88.10;;;;;;5073573;28;20379;-28
2022/09/10 06:19:05;;;;;;;6.20;5.10;;;17.10;88.20;;;;;;5073368;28;20127;-27
2022/09/10 06:21:31;;;;;;;5.22;4.70;;;17.10;88.30;;;;;;5073309;28;20029;-30
2022/09/10 06:23:56;;;;;;;6.05;5.03;;;17.10;88.40;;;;;;5072123;28;20025;-32
2022/09/10 06:26:22;;;;;;;6.95;5.10;;;17.00;88.50;;;;;;5073190;28;20028;-29
2022/09/10 06:28:51;;;;;;;6.43;5.80;;;17.00;88.60;;;;;;5073594;28;20025;-30
2022/09/10 06:31:18;;;;;;;6.75;5.25;;;17.00;88.70;;;;;;5073489;28;20434;-33
2022/09/10 06:33:45;;;;;;;5.97;5.20;;;16.90;88.60;;;;;;5073188;28;20048;-30
2022/09/10 06:36:12;;;;;;;6.25;5.35;;;16.90;88.80;;;;;;5073480;28;20020;-28
2022/09/10 06:38:38;;;;;;;8.32;5.57;;;16.90;88.90;;;;;;5073556;28;20077;-27
2022/09/10 06:41:06;;;;;;;5.32;4.38;;;16.80;89.00;;;;;;5073144;28;20033;-28
2022/09/10 06:43:35;;;;;;;6.40;5.75;;;16.80;88.70;;;;;;5073149;28;20021;-28
2022/09/10 06:46:08;;;;;;;7.50;5.53;;;16.70;88.60;;;;;;5073142;28;20017;-27
2022/09/10 06:48:38;;;;;;;5.35;4.70;;;16.70;88.90;;;;;;5073089;28;20040;-28
2022/09/10 06:51:06;;;;;;;4.78;4.30;;;16.60;89.10;;;;;;5073200;28;20037;-27
2022/09/10 06:53:32;;;;;;;8.02;5.45;;;16.60;89.40;;;;;;5073228;28;20495;-28
2022/09/10 06:56:02;;;;;;;7.10;5.95;;;16.50;89.50;;;;;;5072907;28;20552;-27
2022/09/10 06:58:30;;;;;;;6.68;5.15;;;16.60;89.80;;;;;;5072756;28;20388;-29
2022/09/10 07:00:56;;;;;;;5.75;4.05;;;16.60;89.90;;;;;;5072884;28;20032;-29
2022/09/10 07:03:21;;;;;;;5.20;4.65;;;16.60;89.90;;;;;;5072616;28;20020;-28
2022/09/10 07:05:47;;;;;;;7.47;5.20;;;16.60;90.00;;;;;;5071454;28;20021;-28
2022/09/10 07:08:17;;;;;;;6.18;5.43;;;16.50;90.00;;;;;;5072625;28;20503;-31
2022/09/10 07:10:44;;;;;;;7.80;6.35;;;16.60;90.10;;;;;;5073101;28;20024;-33
2022/09/10 07:13:13;;;;;;;9.45;6.45;;;16.60;90.10;;;;;;5072820;28;20543;-32
2022/09/10 07:15:46;;;;;;;9.05;6.75;;;16.60;90.10;;;;;;5072566;28;20078;-26
2022/09/10 07:18:15;;;;;;;8.88;6.97;;;16.60;90.20;;;;;;5072470;28;20082;-30
2022/09/10 07:20:42;;;;;;;9.63;7.53;;;16.60;90.20;;;;;;5072672;28;20104;-28
2022/09/10 07:23:12;;;;;;;9.18;7.05;;;16.50;90.20;;;;;;5072744;28;20032;-29
2022/09/10 07:25:38;;;;;;;8.45;7.60;;;16.50;90.20;;;;;;5072430;28;20318;-28
2022/09/10 07:28:05;;;;;;;10.07;7.90;;;16.50;90.30;;;;;;5072509;28;20511;-28
2022/09/10 07:30:31;;;;;;;11.05;7.88;;;16.50;90.30;;;;;;5072758;28;20017;-29
2022/09/10 07:32:57;;;;;;;10.00;8.38;;;16.60;90.40;;;;;;5073016;28;20020;-28
2022/09/10 07:35:24;;;;;;;11.38;7.88;;;16.50;90.30;;;;;;5072716;28;20593;-29
2022/09/10 07:37:49;;;;;;;9.70;7.80;;;16.50;90.40;;;;;;5072772;28;20479;-28
2022/09/10 07:40:15;;;;;;;10.73;8.60;;;16.60;90.40;;;;;;5072792;28;20121;-28
2022/09/10 07:42:42;;;;;;;10.23;8.30;;;16.60;90.40;;;;;;5072375;28;20028;-27
2022/09/10 07:45:12;;;;;;;10.10;9.02;;;16.60;90.40;;;;;;5072249;28;20138;-28
2022/09/10 07:47:39;;;;;;;9.13;7.47;;;16.60;90.40;;;;;;5073044;28;20035;-29
2022/09/10 07:50:05;;;;;;;11.93;8.20;;;16.60;90.50;;;;;;5072269;28;20037;-27
2022/09/10 07:52:32;;;;;;;10.93;8.10;;;16.70;90.50;;;;;;5072338;28;20017;-29
2022/09/10 07:54:57;;;;;;;9.63;7.57;;;16.70;90.50;;;;;;5075135;28;20476;-28
2022/09/10 07:57:23;;;;;;;9.18;7.47;;;16.70;90.40;;;;;;5075227;28;20115;-28
2022/09/10 07:59:48;;;;;;;9.43;7.82;;;16.80;90.40;;;;;;5076340;28;20423;-30
2022/09/10 08:02:14;;;;;;;11.38;7.72;;;16.80;90.40;;;;;;5076061;28;20071;-29
2022/09/10 08:04:40;;;;;;;8.45;7.30;;;16.80;90.40;;;;;;5076475;28;20028;-27
2022/09/10 08:07:05;;;;;;;9.30;7.75;;;16.80;90.40;;;;;;5076233;28;20063;-32
2022/09/10 08:09:32;;;;;;;8.68;7.53;;;16.80;90.40;;;;;;5075950;28;20028;-30
2022/09/10 08:11:58;;;;;;;8.82;7.88;;;16.80;90.40;;;;;;5076082;28;20029;-29
2022/09/10 08:14:24;;;;;;;9.50;7.95;;;16.90;90.40;;;;;;5075792;28;20056;-29
2022/09/10 08:16:49;;;;;;;8.95;8.05;;;16.90;90.40;;;;;;5075806;28;20063;-30
2022/09/10 08:19:16;;;;;;;8.18;7.38;;;16.90;90.40;;;;;;5075827;28;20483;-29
2022/09/10 08:21:43;;;;;;;10.25;8.18;;;17.00;90.40;;;;;;5075988;28;20052;-29
2022/09/10 08:24:09;;;;;;;9.43;8.20;;;17.00;90.40;;;;;;5076379;28;20418;-30
2022/09/10 08:26:34;;;;;;;9.13;7.80;;;17.00;90.30;;;;;;5076023;28;20476;-29
2022/09/10 08:29:01;;;;;;;8.48;7.53;;;17.10;90.40;;;;;;5075860;28;20020;-29
2022/09/10 08:31:27;;;;;;;8.77;7.50;;;17.10;90.30;;;;;;5075463;28;20027;-30
2022/09/10 08:33:54;;;;;;;8.05;7.18;;;17.20;90.30;;;;;;5075503;28;20032;-29
2022/09/10 08:36:20;;;;;;;9.32;7.82;;;17.30;90.30;;;;;;5075372;28;20496;-29
2022/09/10 08:38:48;;;;;;;8.95;7.80;;;17.30;90.30;;;;;;5075308;28;20099;-30
2022/09/10 08:41:37;;;;;;;8.32;6.35;;;17.30;90.30;;;;;;5075260;28;20021;-33
2022/09/10 08:44:09;;;;;;;7.15;6.45;;;17.40;90.30;;;;;;5075362;28;20448;-33
2022/09/10 08:46:49;;;;;;;9.93;8.98;;;17.40;90.20;;;;;;5074213;28;20028;-32
2022/09/10 08:49:22;;;;;;;7.55;6.85;;;17.40;90.20;;;;;;5075294;28;20033;-31
2022/09/10 08:52:12;;;;;;;;;;;17.40;90.20;;;;;;5075814;28;20024;-32
2022/09/10 08:54:45;;;;;;;7.50;6.80;;;17.50;90.10;;;;;;5074615;28;19935;-29
2022/09/10 08:57:20;;;;;;;;;;;17.50;90.10;;;;;;5075706;28;20036;-29
2022/09/10 08:59:46;;;;;;;12.48;11.18;;;17.50;90.10;;;;;;5074993;28;20328;-32
2022/09/10 09:02:31;;;;;;;9.32;7.78;;;17.50;90.00;;;;;;5075108;28;20306;-28
2022/09/10 09:05:21;;;;;;;8.02;7.30;;;17.60;90.10;;;;;;5073891;28;20028;-29
2022/09/10 09:07:49;;;;;;;8.80;7.90;;;17.80;90.10;;;;;;5074911;28;20099;-29
2022/09/10 09:10:25;;;;;;;8.57;7.75;;;17.80;90.00;;;;;;5074958;28;20438;-29
2022/09/10 09:13:08;;;;;;;8.32;7.53;;;17.90;89.90;;;;;;5074742;28;20040;-29
2022/09/10 09:15:50;;;;;;;6.45;5.82;;;17.90;89.90;;;;;;5075124;28;20035;-29
2022/09/10 09:18:44;;;;;;;5.53;4.95;;;17.90;89.70;;;;;;5074917;28;20102;-28
2022/09/10 09:21:16;;;;;;;5.20;4.65;;;17.90;89.80;;;;;;5074619;28;20150;-29
2022/09/10 09:23:50;;;;;;;5.07;4.40;;;17.90;89.80;;;;;;5075097;28;20028;-29
2022/09/10 09:26:17;;;;;;;4.45;4.05;;;17.90;89.80;;;;;;5074702;28;20476;-29
2022/09/10 09:29:00;;;;;;;3.65;3.35;;;17.90;89.80;;;;;;5074643;28;20069;-29
2022/09/10 09:31:32;;;;;;;4.10;3.20;;;17.90;89.80;;;;;;5074609;28;20158;-31
2022/09/10 09:34:06;;;;;;;3.88;3.45;;;17.90;89.80;;;;;;5074854;28;20028;-29
2022/09/10 09:36:45;;;;;;;3.53;3.22;;;17.80;89.70;;;;;;5074600;28;20019;-29
2022/09/10 09:39:29;;;;;;;2.95;2.75;;;17.80;89.90;;;;;;5074500;28;20023;-28
2022/09/10 09:42:32;;;;;;;2.30;2.10;;;17.70;89.90;;;;;;5074291;28;20032;-28
2022/09/10 09:45:06;;;;;;;2.45;2.22;;;17.60;89.90;;;;;;5073399;28;20040;-29
2022/09/10 09:47:32;;;;;;;2.58;2.05;;;17.60;90.00;;;;;;5074177;28;20475;-30
2022/09/10 09:49:59;;;;;;;3.53;2.25;;;17.60;90.10;;;;;;5073875;28;20036;-30
2022/09/10 09:52:28;;;;;;;1.83;1.65;;;17.60;90.10;;;;;;5074732;28;20059;-27
2022/09/10 09:55:03;;;;;;;2.00;1.75;;;17.70;90.10;;;;;;5073989;28;20028;-27
2022/09/10 09:57:28;;;;;;;1.80;1.70;;;17.70;90.10;;;;;;5074125;28;20104;-29
2022/09/10 09:59:54;;;;;;;2.10;1.90;;;17.60;90.10;;;;;;5074062;28;20471;-28
2022/09/10 10:02:24;;;;;;;2.85;1.90;;;17.60;90.10;;;;;;5073693;28;20488;-27
2022/09/10 10:05:26;;;;;;;2.17;2.03;;;17.60;90.10;;;;;;5072446;28;20041;-28
2022/09/10 10:07:51;;;;;;;2.33;2.13;;;17.70;90.10;;;;;;5071312;28;20419;-29
2022/09/10 10:10:23;;;;;;;2.28;2.10;;;17.70;90.10;;;;;;5073698;28;20041;-27
2022/09/10 10:12:51;;;;;;;2.20;2.00;;;17.70;90.10;;;;;;5073474;28;20052;-30
2022/09/10 10:15:41;;;;;;;2.30;2.10;;;17.70;90.10;;;;;;5073487;28;20091;-28
2022/09/10 10:18:21;;;;;;;2.50;2.00;;;17.70;90.10;;;;;;5071779;28;20029;-27
2022/09/10 10:21:07;;;;;;;2.83;1.88;;;17.70;90.10;;;;;;5073412;28;20035;-27
2022/09/10 10:23:35;;;;;;;1.90;1.80;;;17.80;90.10;;;;;;5073488;28;20051;-28
2022/09/10 10:26:14;;;;;;;2.17;1.98;;;17.80;90.00;;;;;;5073297;28;20116;-28
2022/09/10 10:28:45;;;;;;;1.60;1.50;;;17.90;90.00;;;;;;5073139;28;20046;-29
2022/09/10 10:31:11;;;;;;;1.70;1.60;;;18.00;90.00;;;;;;5073171;28;20046;-29
2022/09/10 10:33:57;;;;;;;2.20;2.00;;;18.00;89.90;;;;;;5073108;28;20024;-28
2022/09/10 10:36:39;;;;;;;1.90;1.80;;;18.10;89.90;;;;;;5073386;28;20017;-29
2022/09/10 10:39:23;;;;;;;1.58;1.48;;;18.20;89.80;;;;;;5073171;28;20046;-31
2022/09/10 10:42:08;;;;;;;1.85;1.75;;;18.30;89.60;;;;;;5073024;28;20107;-30
2022/09/10 10:44:47;;;;;;;1.58;1.40;;;18.40;89.40;;;;;;5072845;28;20040;-31
2022/09/10 10:47:45;;;;;;;1.70;1.60;;;18.50;89.30;;;;;;5072785;28;20032;-29
2022/09/10 10:50:17;;;;;;;1.40;1.30;;;18.70;89.00;;;;;;5073218;28;20064;-29
2022/09/10 10:53:06;;;;;;;1.70;1.60;;;18.80;88.60;;;;;;5072921;28;20070;-29
2022/09/10 10:55:42;;;;;;;2.92;2.70;;;19.10;88.40;;;;;;5072904;28;20020;-29
2022/09/10 10:59:05;;;;;;;3.33;3.03;;;19.30;88.00;;;;;;5073275;28;20052;-32
2022/09/10 11:01:41;;;;;;;3.88;3.58;;;19.60;87.70;;;;;;5070850;28;20032;-29
2022/09/10 11:04:18;;;;;;;3.45;3.15;;;19.80;87.40;;;;;;5073473;28;20472;-30
2022/09/10 11:06:48;;;;;;;3.72;3.42;;;20.00;87.20;;;;;;5073039;28;20112;-29
2022/09/10 11:09:26;;;;;;;3.92;3.53;;;20.20;87.00;;;;;;5073157;28;20021;-31
2022/09/10 11:12:04;;;;;;;3.50;3.20;;;20.30;86.70;;;;;;5072991;28;20020;-28
2022/09/10 11:14:42;;;;;;;3.75;3.40;;;20.20;86.50;;;;;;5072568;28;20066;-29
2022/09/10 11:17:26;;;;;;;3.15;2.70;;;20.10;86.20;;;;;;5072882;28;20487;-28
2022/09/10 11:20:25;;;;;;;2.70;2.50;;;19.80;86.40;;;;;;5072526;28;20033;-32
2022/09/10 11:22:56;;;;;;;2.17;2.08;;;19.60;86.80;;;;;;5072532;28;20028;-29
2022/09/10 11:25:32;;;;;;;2.50;2.30;;;19.50;87.10;;;;;;5072436;28;20029;-29
2022/09/10 11:28:18;;;;;;;2.13;2.03;;;19.40;87.20;;;;;;5072830;28;20024;-28
2022/09/10 11:30:52;;;;;;;2.58;2.38;;;19.30;87.20;;;;;;5076929;28;20025;-29
2022/09/10 11:33:30;;;;;;;2.50;2.40;;;19.30;87.30;;;;;;5076757;28;20013;-29
2022/09/10 11:35:59;;;;;;;2.58;2.38;;;19.30;87.20;;;;;;5076734;28;20024;-29
2022/09/10 11:38:52;;;;;;;3.20;2.22;;;19.40;87.20;;;;;;5075317;28;20532;-29
2022/09/10 11:41:23;;;;;;;2.75;2.55;;;19.50;87.20;;;;;;5076304;28;20166;-28
2022/09/10 11:44:14;;;;;;;3.13;2.42;;;19.50;87.20;;;;;;5076561;28;20025;-30
2022/09/10 11:47:02;;;;;;;2.03;1.90;;;19.50;87.20;;;;;;5076667;28;20113;-32
2022/09/10 11:49:36;;;;;;;2.50;1.95;;;19.60;87.00;;;;;;5076358;28;20437;-30
2022/09/10 11:52:01;;;;;;;2.10;2.00;;;19.60;86.90;;;;;;5076583;28;20020;-31
2022/09/10 11:54:34;;;;;;;1.70;1.60;;;19.60;86.70;;;;;;5076282;28;20511;-30
2022/09/10 11:57:52;;;;;;;1.80;1.70;;;19.70;86.70;;;;;;5076391;28;20025;-31
2022/09/10 12:00:19;;;;;;;1.25;1.15;;;19.80;86.40;;;;;;5074774;28;20332;-37
2022/09/10 12:03:09;;;;;;;1.17;1.17;;;19.90;86.10;;;;;;5076123;28;20104;-30
2022/09/10 12:05:53;;;;;;;1.48;1.33;;;19.90;85.80;;;;;;5075902;28;20025;-32
2022/09/10 12:08:28;;;;;;;;;;;19.90;85.70;;;;;;5076234;28;20068;-30
2022/09/10 12:11:23;;;;;;;1.50;1.30;;;19.80;85.60;;;;;;5076142;28;19911;-30
2022/09/10 12:13:50;;;;;;;1.80;1.45;;;19.80;85.40;;;;;;5076101;28;20365;-33
2022/09/10 12:16:31;;;;;;;1.38;1.27;;;19.80;85.30;;;;;;5076050;28;20016;-31
2022/09/10 12:18:57;;;;;;;1.70;1.60;;;19.80;85.40;;;;;;5075923;28;20035;-37
2022/09/10 12:21:46;;;;;;;1.92;1.40;;;19.80;85.30;;;;;;5075627;28;20012;-30
2022/09/10 12:24:29;;;;;;;1.60;1.50;;;19.80;85.30;;;;;;5075623;28;20017;-31
2022/09/10 12:26:56;;;;;;;;;;;19.90;85.40;;;;;;5076164;28;20040;-35
2022/09/10 12:29:34;;;;;;;1.40;1.30;;;20.10;85.00;;;;;;5075523;28;19995;-32
2022/09/10 12:32:18;;;;;;;2.08;1.38;;;20.20;84.90;;;;;;5075530;28;20028;-32
2022/09/10 12:34:48;;;;;;;2.38;1.67;;;20.30;84.60;;;;;;5075540;28;20048;-32
2022/09/10 12:37:20;;;;;;;3.38;1.73;;;20.30;84.30;;;;;;5075972;28;20025;-35
2022/09/10 12:39:48;;;;;;;1.87;1.77;;;20.30;84.30;;;;;;5075221;28;20020;-33
2022/09/10 12:42:44;;;;;;;1.60;1.50;;;20.30;84.40;;;;;;5075564;28;20476;-30
2022/09/10 12:45:10;;;;;;;2.00;1.75;;;20.30;84.50;;;;;;5074771;28;20033;-34
2022/09/10 12:47:40;;;;;;;1.40;1.30;;;20.20;84.50;;;;;;5076047;28;20158;-35
2022/09/10 12:50:26;;;;;;;1.73;1.20;;;20.20;84.50;;;;;;5075259;28;20395;-30
2022/09/10 12:53:01;;;;;;;1.70;1.60;;;20.30;84.60;;;;;;5075102;28;20102;-33
2022/09/10 12:55:51;;;;;;;1.40;1.30;;;20.40;84.60;;;;;;5075781;28;20036;-31
2022/09/10 12:58:29;;;;;;;1.80;1.70;;;20.60;84.40;;;;;;5074941;28;20028;-31
2022/09/10 13:00:54;;;;;;;2.40;2.17;;;20.70;83.80;;;;;;5075002;28;20036;-31
2022/09/10 13:03:22;;;;;;;2.10;2.00;;;20.80;83.40;;;;;;5075596;28;20417;-31
2022/09/10 13:05:57;;;;;;;2.28;2.10;;;20.70;83.00;;;;;;5074751;28;20025;-32
2022/09/10 13:08:44;;;;;;;2.00;1.90;;;20.70;83.10;;;;;;5074645;28;20028;-33
2022/09/10 13:11:23;;;;;;;2.30;2.10;;;20.60;83.10;;;;;;5074832;28;20021;-30
2022/09/10 13:14:01;;;;;;;2.50;2.30;;;20.60;83.00;;;;;;5074889;28;20473;-30
2022/09/10 13:16:27;;;;;;;2.50;2.10;;;20.50;83.00;;;;;;5074552;28;20082;-30